Time;durP1;ratioP1;P1;durP2;ratioP2;P2;SDS_P1;SDS_P2;PMS_P1;PMS_P2;Temp;Humidity;BMP_temperature;BMP_pressure;BME280_temperature;BME280_humidity;BME280_pressure;Samples;Min_cycle;Max_cycle;Signal;HPM_P1;HPM_P2
2022/07/19 00:00:20;;;;;;;5.47;4.72;;;18.50;99.90;;;;;;5095823;28;20106;-86
2022/07/19 00:02:46;;;;;;;7.18;4.75;;;18.50;99.90;;;;;;5077647;28;20400;-87
2022/07/19 00:05:13;;;;;;;6.28;4.70;;;18.50;99.90;;;;;;5095565;28;20056;-86
2022/07/19 00:07:39;;;;;;;9.10;5.35;;;18.50;99.90;;;;;;5095599;28;20044;-86
2022/07/19 00:10:08;;;;;;;8.15;4.60;;;18.40;99.90;;;;;;5076949;28;20073;-86
2022/07/19 00:12:34;;;;;;;8.35;5.63;;;18.40;99.90;;;;;;5077655;28;20145;-86
2022/07/19 00:18:43;;;;;;;8.25;4.80;;;18.40;99.90;;;;;;5095052;28;20039;-86
2022/07/19 00:21:09;;;;;;;10.13;5.05;;;18.30;99.90;;;;;;5077219;28;20054;-86
2022/07/19 00:23:34;;;;;;;7.75;4.50;;;18.20;99.90;;;;;;5077081;28;20048;-87
2022/07/19 00:26:01;;;;;;;7.60;4.70;;;18.30;99.90;;;;;;5076511;28;20054;-86
2022/07/19 00:28:27;;;;;;;8.68;5.35;;;18.10;99.90;;;;;;5095612;28;20052;-86
2022/07/19 00:30:53;;;;;;;8.90;5.13;;;18.20;99.90;;;;;;5076564;28;20093;-86
2022/07/19 00:33:19;;;;;;;6.10;4.65;;;18.20;99.90;;;;;;5076951;28;20059;-87
2022/07/19 00:35:44;;;;;;;7.53;4.97;;;18.20;99.90;;;;;;5056771;28;20095;-86
2022/07/19 00:38:16;;;;;;;10.27;5.15;;;18.10;99.90;;;;;;5073852;28;20048;-86
2022/07/19 00:40:42;;;;;;;11.18;5.32;;;18.20;99.90;;;;;;5073044;28;20108;-86
2022/07/19 00:43:10;;;;;;;7.22;4.75;;;18.10;99.90;;;;;;5074450;28;20087;-86
2022/07/19 00:45:35;;;;;;;12.95;5.07;;;18.20;99.90;;;;;;5077307;28;20382;-86
2022/07/19 00:48:01;;;;;;;11.77;5.60;;;18.20;99.90;;;;;;5094801;28;20073;-86
2022/07/19 00:50:27;;;;;;;9.90;5.38;;;18.20;99.90;;;;;;5076749;28;20082;-87
2022/07/19 00:52:56;;;;;;;7.45;5.20;;;18.10;99.90;;;;;;5094651;28;20358;-87
2022/07/19 00:55:23;;;;;;;8.10;5.03;;;18.10;99.90;;;;;;5076912;28;20369;-86
2022/07/19 00:57:49;;;;;;;8.27;5.28;;;18.10;99.90;;;;;;5076647;28;20388;-87
2022/07/19 01:00:35;;;;;;;8.30;5.00;;;18.00;99.90;;;;;;5076031;28;20058;-87
2022/07/19 01:03:01;;;;;;;9.50;5.10;;;18.00;99.90;;;;;;5076486;28;20083;-86
2022/07/19 01:05:27;;;;;;;10.55;5.38;;;18.00;99.90;;;;;;5077102;28;20044;-86
2022/07/19 01:07:53;;;;;;;8.43;4.90;;;18.00;99.90;;;;;;5076372;28;20063;-86
2022/07/19 01:10:19;;;;;;;9.00;5.43;;;18.00;99.90;;;;;;5094873;28;20461;-87
2022/07/19 01:12:44;;;;;;;9.07;5.72;;;17.90;99.90;;;;;;5093968;28;20047;-87
2022/07/19 01:15:14;;;;;;;8.80;5.25;;;17.90;99.90;;;;;;5094269;28;20048;-87
2022/07/19 01:17:40;;;;;;;10.70;5.60;;;17.80;99.90;;;;;;5076922;28;20052;-87
2022/07/19 01:20:07;;;;;;;8.20;5.35;;;17.80;99.90;;;;;;5093989;28;20086;-86
2022/07/19 01:22:32;;;;;;;7.57;5.60;;;17.80;99.90;;;;;;5076087;28;20435;-87
2022/07/19 01:24:58;;;;;;;9.35;5.45;;;17.80;99.90;;;;;;5076042;28;20090;-86
2022/07/19 01:27:24;;;;;;;7.43;5.47;;;17.70;99.90;;;;;;5093945;28;20088;-86
2022/07/19 01:33:30;;;;;;;9.38;5.32;;;17.70;99.90;;;;;;5094680;28;20054;-86
2022/07/19 01:35:56;;;;;;;8.80;5.38;;;17.60;99.90;;;;;;5075534;28;20127;-87
2022/07/19 01:38:22;;;;;;;8.30;5.70;;;17.60;99.90;;;;;;5094125;28;20139;-86
2022/07/19 01:40:48;;;;;;;9.13;5.68;;;17.50;99.90;;;;;;5076369;28;20437;-86
2022/07/19 01:43:14;;;;;;;10.68;5.68;;;17.50;99.90;;;;;;5094667;28;20374;-86
2022/07/19 01:45:40;;;;;;;10.07;5.78;;;17.50;99.90;;;;;;5094397;28;20055;-86
2022/07/19 01:48:05;;;;;;;9.43;5.22;;;17.50;99.90;;;;;;5094347;28;20446;-86
2022/07/19 01:50:31;;;;;;;7.78;5.53;;;17.50;99.90;;;;;;5094389;28;20055;-86
2022/07/19 01:52:57;;;;;;;9.23;5.60;;;17.50;99.90;;;;;;5094123;28;20040;-86
2022/07/19 01:55:22;;;;;;;11.30;5.85;;;17.50;99.90;;;;;;5076180;28;20484;-86
2022/07/19 01:57:49;;;;;;;7.57;5.10;;;17.50;99.90;;;;;;5076614;28;20357;-86
2022/07/19 02:00:33;;;;;;;8.13;5.45;;;17.40;99.90;;;;;;5094463;28;20087;-86
2022/07/19 02:02:58;;;;;;;9.65;5.60;;;17.40;99.90;;;;;;5093595;28;20068;-86
2022/07/19 02:05:24;;;;;;;10.35;5.28;;;17.40;99.90;;;;;;5075526;28;20113;-87
2022/07/19 02:07:50;;;;;;;10.75;5.50;;;17.30;99.90;;;;;;5076344;28;20485;-86
2022/07/19 02:10:16;;;;;;;9.45;5.57;;;17.30;99.90;;;;;;5093510;28;20120;-86
2022/07/19 02:12:42;;;;;;;13.23;5.82;;;17.30;99.90;;;;;;5076109;28;20056;-85
2022/07/19 02:15:08;;;;;;;10.25;6.28;;;17.30;99.90;;;;;;5075587;28;20109;-85
2022/07/19 02:17:34;;;;;;;11.18;6.43;;;17.20;99.90;;;;;;5093469;28;20497;-86
2022/07/19 02:20:01;;;;;;;11.73;6.18;;;17.20;99.90;;;;;;5075648;28;20389;-86
2022/07/19 02:22:27;;;;;;;13.65;6.60;;;17.20;99.90;;;;;;5093964;28;20048;-85
2022/07/19 02:24:53;;;;;;;11.98;6.60;;;17.10;99.90;;;;;;5076344;28;20048;-86
2022/07/19 02:27:19;;;;;;;9.63;6.10;;;17.00;99.90;;;;;;5075779;28;20052;-86
2022/07/19 02:29:45;;;;;;;8.70;6.28;;;17.10;99.90;;;;;;5075876;28;20373;-86
2022/07/19 02:32:15;;;;;;;10.20;6.20;;;17.20;99.90;;;;;;5075863;28;20048;-86
2022/07/19 02:34:40;;;;;;;9.60;6.18;;;17.00;99.90;;;;;;5075172;28;20044;-86
2022/07/19 02:37:06;;;;;;;11.02;5.68;;;17.10;99.90;;;;;;5092995;28;20111;-86
2022/07/19 02:39:32;;;;;;;10.70;6.32;;;17.10;99.90;;;;;;5075258;28;20097;-86
2022/07/19 02:41:58;;;;;;;10.35;6.40;;;17.00;99.90;;;;;;5093272;28;20116;-86
2022/07/19 02:44:24;;;;;;;7.30;5.97;;;17.10;99.90;;;;;;5075314;28;20441;-86
2022/07/19 02:46:49;;;;;;;14.15;6.55;;;16.90;99.90;;;;;;5093771;28;20046;-85
2022/07/19 02:49:15;;;;;;;11.55;6.05;;;16.90;99.90;;;;;;5093032;28;20056;-86
2022/07/19 02:51:41;;;;;;;12.88;6.30;;;16.90;99.90;;;;;;5059121;28;20355;-85
2022/07/19 02:54:07;;;;;;;10.80;6.18;;;16.90;99.90;;;;;;5075507;28;20125;-86
2022/07/19 03:04:14;;;;;;;8.18;5.60;;;16.70;99.90;;;;;;5096508;28;20043;-86
2022/07/19 03:06:39;;;;;;;10.57;6.45;;;16.70;99.90;;;;;;5096815;28;20404;-85
2022/07/19 03:09:05;;;;;;;8.85;5.88;;;16.70;99.90;;;;;;5078352;28;20052;-86
2022/07/19 03:11:31;;;;;;;10.13;6.43;;;16.70;99.90;;;;;;5077992;28;20135;-86
2022/07/19 03:14:31;;;;;;;7.97;6.75;;;16.60;99.90;;;;;;5096554;28;20051;-86
2022/07/19 03:17:00;;;;;;;10.85;7.15;;;16.60;99.90;;;;;;5096408;28;20059;-85
2022/07/19 03:25:08;;;;;;;14.63;7.85;;;16.60;99.90;;;;;;5118012;27;20076;-85
2022/07/19 03:27:34;;;;;;;11.10;7.32;;;16.60;99.90;;;;;;5035586;28;20049;-85
2022/07/19 03:30:00;;;;;;;14.02;7.53;;;16.60;99.90;;;;;;5055574;28;20060;-85
2022/07/19 03:36:49;;;;;;;14.52;7.78;;;16.60;99.90;;;;;;5055343;28;20064;-85
2022/07/19 03:39:14;;;;;;;18.45;8.60;;;16.60;99.90;;;;;;5055663;28;20367;-85
2022/07/19 03:41:40;;;;;;;13.35;7.60;;;16.60;99.90;;;;;;5053776;28;20056;-85
2022/07/19 03:44:06;;;;;;;16.77;7.97;;;16.60;99.90;;;;;;5055634;28;20048;-85
2022/07/19 03:46:32;;;;;;;17.00;8.45;;;16.70;99.90;;;;;;5055621;28;20056;-85
2022/07/19 03:48:58;;;;;;;14.32;7.82;;;16.70;99.90;;;;;;5055618;28;20048;-86
2022/07/19 03:52:14;;;;;;;12.98;7.68;;;16.70;99.90;;;;;;5020862;28;20099;-85
2022/07/19 03:54:40;;;;;;;10.95;7.00;;;16.80;99.90;;;;;;5038187;28;20049;-85
2022/07/19 03:57:05;;;;;;;13.77;7.90;;;16.80;99.90;;;;;;5037780;28;20063;-85
2022/07/19 04:03:55;;;;;;;12.48;6.95;;;16.90;99.90;;;;;;5054772;28;20064;-85
2022/07/19 04:06:20;;;;;;;14.63;7.50;;;16.90;99.90;;;;;;5037556;28;20044;-85
2022/07/19 04:08:46;;;;;;;14.75;7.38;;;16.90;99.90;;;;;;5037692;28;20060;-86
2022/07/19 04:11:38;;;;;;;12.32;7.40;;;16.90;99.90;;;;;;5055027;28;20129;-86
2022/07/19 06:25:23;;;;;;;8.35;4.85;;;21.80;99.90;;;;;;5108286;27;20058;-85
2022/07/19 06:27:49;;;;;;;9.85;5.32;;;22.00;99.90;;;;;;5094732;28;20353;-86
2022/07/19 06:34:54;;;;;;;8.15;5.45;;;22.30;99.90;;;;;;5092928;28;20403;-85
2022/07/19 06:37:20;;;;;;;10.07;4.75;;;22.50;99.90;;;;;;5080113;28;20415;-86
2022/07/19 06:39:46;;;;;;;10.80;4.70;;;22.70;99.90;;;;;;5079410;28;20083;-86
2022/07/19 06:58:18;;;;;;;9.70;4.35;;;25.00;95.70;;;;;;5097944;28;20027;-86
2022/07/19 07:04:49;;;;;;;7.35;3.47;;;25.40;91.20;;;;;;5096999;28;20094;-86
2022/07/19 07:07:15;;;;;;;8.18;3.63;;;25.50;91.30;;;;;;5078830;28;20079;-85
2022/07/19 07:09:41;;;;;;;13.25;4.28;;;25.60;82.80;;;;;;5096788;28;20477;-85
2022/07/19 07:12:08;;;;;;;7.25;3.50;;;25.70;79.20;;;;;;5097071;28;20043;-86
2022/07/19 07:14:34;;;;;;;11.50;3.60;;;25.80;78.10;;;;;;5078827;28;20535;-86
2022/07/19 07:17:12;;;;;;;5.75;3.40;;;26.00;76.90;;;;;;5062879;28;20086;-86
2022/07/19 07:19:38;;;;;;;10.77;4.00;;;26.30;77.20;;;;;;5078953;28;20054;-86
2022/07/19 07:22:07;;;;;;;8.43;3.90;;;26.60;70.70;;;;;;5078739;28;20052;-85
2022/07/19 07:24:36;;;;;;;9.77;3.42;;;27.00;70.60;;;;;;5079004;28;20377;-85
2022/07/19 07:27:11;;;;;;;8.02;3.30;;;27.40;70.60;;;;;;5101227;27;20133;-87
2022/07/19 07:29:57;;;;;;;8.82;3.13;;;27.80;66.70;;;;;;5101851;27;20047;-85
2022/07/19 07:32:26;;;;;;;10.60;3.03;;;28.10;66.30;;;;;;5119230;27;20087;-86
2022/07/19 07:34:53;;;;;;;7.22;2.90;;;28.40;62.30;;;;;;5119026;27;20065;-85
2022/07/19 07:37:20;;;;;;;11.93;3.03;;;28.60;62.20;;;;;;5119807;27;20047;-85
2022/07/19 07:39:46;;;;;;;4.68;2.90;;;29.00;60.70;;;;;;5102670;27;20068;-86
2022/07/19 07:42:11;;;;;;;5.85;2.58;;;29.40;61.20;;;;;;5138029;27;20055;-85
2022/07/19 07:44:49;;;;;;;9.88;2.78;;;29.80;59.00;;;;;;5119089;27;20047;-85
2022/07/19 07:47:15;;;;;;;8.88;2.83;;;30.00;55.70;;;;;;5118130;27;20134;-86
2022/07/19 07:49:40;;;;;;;5.88;2.45;;;30.40;55.10;;;;;;5119481;27;20085;-85
2022/07/19 07:52:07;;;;;;;6.38;2.60;;;30.70;55.30;;;;;;5101675;27;20058;-86
2022/07/19 07:54:33;;;;;;;7.72;3.17;;;31.10;53.90;;;;;;5102487;27;20054;-86
2022/07/19 07:56:59;;;;;;;7.00;2.70;;;31.50;52.50;;;;;;5119045;27;20415;-84
2022/07/19 07:59:25;;;;;;;4.95;2.80;;;31.90;51.90;;;;;;5137059;27;20047;-87
2022/07/19 08:01:50;;;;;;;5.53;2.78;;;32.20;49.90;;;;;;5118497;27;20039;-84
2022/07/19 08:04:16;;;;;;;3.60;2.20;;;32.30;49.30;;;;;;5118489;27;20126;-86
2022/07/19 08:06:42;;;;;;;10.43;2.90;;;32.60;48.50;;;;;;5137184;27;20054;-85
2022/07/19 08:09:07;;;;;;;7.13;2.47;;;32.80;48.90;;;;;;5119151;27;20057;-84
2022/07/19 08:11:33;;;;;;;6.75;2.45;;;33.00;48.30;;;;;;5119662;27;20043;-84
2022/07/19 08:13:59;;;;;;;4.68;2.20;;;33.30;48.20;;;;;;5118813;27;20132;-85
2022/07/19 08:16:25;;;;;;;5.93;2.55;;;33.60;47.00;;;;;;5136622;27;20140;-86
2022/07/19 08:18:50;;;;;;;5.18;2.38;;;34.00;47.30;;;;;;5136512;27;20440;-86
2022/07/19 08:21:16;;;;;;;8.93;2.72;;;34.50;46.10;;;;;;5136111;27;20135;-84
2022/07/19 08:23:41;;;;;;;4.68;2.28;;;34.90;44.50;;;;;;5117808;27;20050;-84
2022/07/19 08:26:08;;;;;;;4.88;2.30;;;35.20;44.80;;;;;;5119284;27;20082;-85
2022/07/19 08:28:34;;;;;;;3.83;2.50;;;35.50;43.70;;;;;;5136396;27;20114;-86
2022/07/19 08:30:59;;;;;;;4.88;2.53;;;35.70;43.60;;;;;;5137938;27;20430;-86
2022/07/19 08:33:25;;;;;;;6.32;2.95;;;35.90;42.60;;;;;;5138124;27;20537;-86
2022/07/19 08:35:51;;;;;;;3.45;2.30;;;36.20;43.50;;;;;;5118828;27;20047;-86
2022/07/19 08:38:16;;;;;;;6.15;2.30;;;36.50;43.00;;;;;;5136724;27;20488;-85
2022/07/19 08:40:43;;;;;;;6.78;2.42;;;36.80;41.80;;;;;;5118127;27;20043;-85
2022/07/19 08:43:10;;;;;;;6.90;2.20;;;37.00;41.40;;;;;;5135911;27;20471;-86
2022/07/19 08:45:37;;;;;;;4.25;2.42;;;37.30;41.00;;;;;;5102039;27;20076;-86
2022/07/19 08:48:05;;;;;;;7.07;2.47;;;37.50;41.10;;;;;;5117888;27;20352;-86
2022/07/19 08:50:33;;;;;;;3.63;2.30;;;37.80;42.60;;;;;;5101076;27;20119;-85
2022/07/19 08:52:59;;;;;;;7.03;2.28;;;38.10;41.20;;;;;;5136166;27;20050;-85
2022/07/19 08:55:26;;;;;;;4.43;2.40;;;38.30;40.40;;;;;;5101097;27;20047;-86
2022/07/19 08:57:57;;;;;;;3.00;2.08;;;38.50;40.00;;;;;;5083705;28;20484;-85
2022/07/19 09:00:30;;;;;;;5.63;2.47;;;38.60;39.30;;;;;;5100462;27;20395;-85
2022/07/19 09:02:59;;;;;;;13.60;2.40;;;38.70;39.50;;;;;;5100145;27;20054;-87
2022/07/19 09:05:25;;;;;;;5.90;2.50;;;38.80;38.50;;;;;;5117230;27;20107;-85
2022/07/19 09:08:09;;;;;;;6.95;2.63;;;39.00;38.40;;;;;;5118072;27;20092;-86
2022/07/19 09:11:14;;;;;;;7.30;2.65;;;39.20;39.30;;;;;;5100275;27;20088;-87
2022/07/19 09:13:35;;;;;;;4.38;2.50;;;39.10;39.20;;;;;;5117058;27;20051;-87
2022/07/19 09:16:02;;;;;;;9.80;2.75;;;39.10;38.10;;;;;;5117828;27;20046;-87
2022/07/19 09:18:30;;;;;;;6.93;2.42;;;39.20;37.70;;;;;;5117402;27;20380;-87
2022/07/19 09:21:02;;;;;;;9.00;2.45;;;39.10;38.00;;;;;;5101150;27;20047;-86
2022/07/19 09:23:28;;;;;;;4.43;2.17;;;39.00;38.30;;;;;;5135606;27;20039;-86
2022/07/19 09:26:00;;;;;;;6.88;2.10;;;39.30;37.70;;;;;;5116431;27;20542;-87
2022/07/19 09:28:29;;;;;;;9.15;2.40;;;39.30;37.80;;;;;;5135663;27;20055;-87
2022/07/19 09:30:56;;;;;;;10.00;2.50;;;39.50;37.20;;;;;;5135116;27;20047;-86
2022/07/19 09:33:27;;;;;;;10.13;2.65;;;39.70;37.70;;;;;;5134994;27;20051;-87
2022/07/19 09:36:13;;;;;;;6.68;2.42;;;39.90;36.90;;;;;;5100805;27;20043;-86
2022/07/19 09:38:43;;;;;;;7.97;2.22;;;40.10;37.30;;;;;;5136335;27;20457;-87
2022/07/19 09:41:10;;;;;;;6.53;2.40;;;40.30;36.70;;;;;;5136510;27;20043;-85
2022/07/19 09:43:59;;;;;;;5.63;2.33;;;40.60;36.20;;;;;;5135491;27;20407;-85
2022/07/19 09:46:35;;;;;;;4.70;2.42;;;40.80;35.50;;;;;;5100707;27;20043;-87
2022/07/19 09:49:15;;;;;;;4.75;2.22;;;40.90;36.60;;;;;;5135336;27;20051;-88
2022/07/19 09:51:45;;;;;;;7.32;2.30;;;40.90;35.10;;;;;;5116921;28;20469;-87
2022/07/19 09:54:14;;;;;;;6.03;2.30;;;41.00;36.00;;;;;;5117550;27;20054;-86
2022/07/19 09:56:44;;;;;;;7.53;2.40;;;41.10;35.80;;;;;;5117075;28;20051;-86
2022/07/19 09:59:11;;;;;;;5.15;2.10;;;41.30;35.90;;;;;;5135113;28;20461;-87
2022/07/19 10:01:40;;;;;;;5.50;2.15;;;41.60;35.20;;;;;;5134555;28;20538;-87
2022/07/19 10:04:08;;;;;;;12.20;2.40;;;41.90;33.90;;;;;;5116474;28;20082;-85
2022/07/19 10:06:35;;;;;;;7.30;2.30;;;42.10;33.30;;;;;;5099914;28;20058;-86
2022/07/19 10:09:03;;;;;;;7.78;2.30;;;42.20;33.30;;;;;;5134462;27;20081;-87
2022/07/19 10:11:30;;;;;;;7.38;2.20;;;42.50;34.10;;;;;;5120033;27;20086;-88
2022/07/19 10:13:57;;;;;;;6.30;2.13;;;42.80;33.30;;;;;;5120120;27;20047;-89
2022/07/19 10:16:32;;;;;;;8.00;2.40;;;42.70;32.40;;;;;;5120699;27;20095;-87
2022/07/19 10:19:36;;;;;;;5.32;1.92;;;42.50;35.00;;;;;;5138914;27;20392;-87
2022/07/19 10:22:03;;;;;;;6.35;2.08;;;42.50;35.30;;;;;;5121543;27;20051;-87
2022/07/19 10:24:46;;;;;;;8.27;2.45;;;42.80;33.50;;;;;;5121372;27;20410;-86
2022/07/19 10:27:36;;;;;;;8.77;2.70;;;43.20;33.70;;;;;;5120465;27;20054;-86
2022/07/19 10:30:07;;;;;;;5.40;2.33;;;43.40;33.50;;;;;;5038231;28;20048;-86
2022/07/19 10:32:33;;;;;;;9.55;2.17;;;43.70;32.30;;;;;;5038700;28;20167;-87
2022/07/19 10:35:25;;;;;;;4.10;2.40;;;43.90;31.60;;;;;;5055852;28;20132;-87
2022/07/19 10:38:01;;;;;;;5.75;2.40;;;44.00;32.50;;;;;;5055393;28;20084;-88
2022/07/19 10:40:43;;;;;;;4.90;2.05;;;44.20;31.50;;;;;;5038596;28;20059;-86
2022/07/19 10:43:15;;;;;;;5.78;2.10;;;44.30;32.60;;;;;;5055323;28;20085;-87
2022/07/19 10:46:03;;;;;;;9.27;1.98;;;44.30;32.30;;;;;;5038062;28;20056;-86
2022/07/19 10:48:38;;;;;;;7.07;2.30;;;44.40;33.20;;;;;;5038294;28;20045;-86
2022/07/19 10:51:04;;;;;;;7.55;2.15;;;44.50;30.80;;;;;;5039107;28;20374;-86
2022/07/19 10:53:42;;;;;;;5.55;1.98;;;44.40;32.20;;;;;;5055261;28;20048;-87
2022/07/19 10:56:19;;;;;;;5.97;2.10;;;44.30;32.50;;;;;;5038348;28;20096;-87
2022/07/19 10:59:07;;;;;;;5.30;2.05;;;44.30;32.50;;;;;;5054947;28;20092;-85
2022/07/19 11:01:34;;;;;;;5.07;1.90;;;44.50;31.50;;;;;;5022551;28;20088;-88
2022/07/19 11:04:33;;;;;;;2.88;1.75;;;44.30;30.10;;;;;;5054477;28;20041;-85
2022/07/19 11:07:11;;;;;;;5.38;1.95;;;44.10;31.20;;;;;;5000676;28;20060;-87
2022/07/19 11:09:49;;;;;;;5.60;1.93;;;43.90;28.70;;;;;;5057996;28;20064;-87
2022/07/19 11:12:44;;;;;;;5.38;1.70;;;43.60;29.50;;;;;;5057605;28;20063;-87
2022/07/19 11:15:11;;;;;;;4.70;1.67;;;43.60;30.60;;;;;;5074387;28;20421;-88
2022/07/19 11:17:37;;;;;;;3.50;1.83;;;43.70;29.30;;;;;;5041136;28;20140;-88
2022/07/19 11:20:11;;;;;;;6.75;1.90;;;43.70;28.80;;;;;;5058025;28;20569;-87
2022/07/19 11:22:42;;;;;;;6.22;1.73;;;43.80;28.80;;;;;;5073458;28;20060;-87
2022/07/19 11:25:09;;;;;;;4.93;1.42;;;43.90;29.20;;;;;;5074073;28;20048;-86
2022/07/19 11:27:36;;;;;;;2.97;1.80;;;43.90;28.80;;;;;;5074012;28;20044;-86
2022/07/19 11:30:05;;;;;;;2.22;1.83;;;44.20;29.10;;;;;;5057534;28;20052;-87
2022/07/19 11:32:31;;;;;;;;;;;44.60;28.70;;;;;;5074362;28;20053;-86
2022/07/19 11:35:03;;;;;;;8.98;1.65;;;44.70;28.70;;;;;;5073707;28;20015;-88
2022/07/19 11:37:31;;;;;;;3.30;1.70;;;44.60;29.30;;;;;;5057358;28;20050;-87
2022/07/19 11:40:06;;;;;;;9.60;1.85;;;44.80;28.80;;;;;;5058033;28;20551;-88
2022/07/19 11:42:39;;;;;;;4.20;1.70;;;44.80;28.70;;;;;;5088447;27;20450;-88
2022/07/19 11:45:17;;;;;;;4.15;1.92;;;44.80;28.70;;;;;;5119301;27;20126;-87
2022/07/19 11:47:54;;;;;;;12.68;1.75;;;44.70;29.30;;;;;;5137019;27;20086;-88
2022/07/19 11:50:25;;;;;;;5.97;1.83;;;44.60;28.80;;;;;;5136880;27;20444;-87
2022/07/19 11:52:54;;;;;;;2.08;1.60;;;44.80;29.40;;;;;;5118605;27;20499;-90
2022/07/19 11:55:23;;;;;;;6.88;1.77;;;44.80;28.10;;;;;;5136985;27;20039;-87
2022/07/19 11:57:50;;;;;;;8.45;1.80;;;44.80;28.40;;;;;;5137608;27;20445;-87
2022/07/19 12:00:16;;;;;;;4.85;2.00;;;44.80;28.70;;;;;;5118726;27;20374;-87
2022/07/19 12:02:58;;;;;;;5.05;1.65;;;44.90;29.10;;;;;;5118420;27;20050;-89
2022/07/19 12:05:25;;;;;;;4.30;1.52;;;45.10;28.60;;;;;;5136850;27;20370;-90
2022/07/19 12:08:02;;;;;;;6.82;1.63;;;45.10;28.20;;;;;;5136602;27;20082;-88
2022/07/19 12:10:42;;;;;;;3.63;1.50;;;45.10;29.20;;;;;;5137145;27;20094;-87
2022/07/19 12:13:14;;;;;;;3.17;1.30;;;44.80;27.80;;;;;;5118593;27;20051;-90
2022/07/19 12:19:21;;;;;;;4.32;1.48;;;44.50;28.50;;;;;;5136541;27;20038;-87
2022/07/19 12:21:47;;;;;;;4.65;1.55;;;44.70;29.00;;;;;;5100159;27;20039;-87
2022/07/19 12:24:14;;;;;;;4.75;1.55;;;44.80;27.90;;;;;;5100955;27;20105;-86
2022/07/19 12:26:55;;;;;;;7.90;1.40;;;44.60;27.70;;;;;;5117715;27;20086;-87
2022/07/19 12:29:23;;;;;;;3.47;1.50;;;44.50;27.20;;;;;;5119011;27;20072;-87
2022/07/19 12:31:53;;;;;;;2.83;1.47;;;44.40;26.60;;;;;;5101095;27;20140;-86
2022/07/19 12:34:19;;;;;;;5.50;1.52;;;44.30;27.10;;;;;;5135534;27;20289;-86
2022/07/19 12:36:45;;;;;;;3.08;1.70;;;43.90;27.30;;;;;;5100541;27;20047;-88
2022/07/19 12:39:31;;;;;;;4.93;1.52;;;43.90;27.70;;;;;;5136225;27;20047;-87
2022/07/19 12:42:02;;;;;;;4.20;1.52;;;44.00;27.40;;;;;;5122208;27;20043;-88
2022/07/19 12:44:34;;;;;;;5.47;1.60;;;44.00;27.70;;;;;;5152693;27;20047;-88
2022/07/19 12:47:00;;;;;;;3.22;1.70;;;44.30;27.70;;;;;;5127744;27;20043;-87
2022/07/19 12:49:40;;;;;;;4.78;1.45;;;44.70;27.40;;;;;;5137291;27;20096;-88
2022/07/19 12:52:06;;;;;;;5.25;1.50;;;44.90;26.80;;;;;;5119178;27;20047;-86
2022/07/19 12:54:37;;;;;;;5.47;1.70;;;44.90;26.50;;;;;;5118688;27;20039;-87
2022/07/19 12:57:03;;;;;;;2.92;1.52;;;44.30;26.70;;;;;;5136570;27;20135;-88
2022/07/19 12:59:41;;;;;;;5.57;1.58;;;43.60;27.00;;;;;;5137314;27;20082;-86
2022/07/19 13:02:12;;;;;;;4.68;1.45;;;42.80;27.20;;;;;;5101733;27;20379;-89
2022/07/19 13:04:40;;;;;;;6.15;1.70;;;42.10;28.20;;;;;;5100709;27;20070;-86
2022/07/19 13:07:08;;;;;;;4.68;1.42;;;41.60;28.70;;;;;;5136365;27;20050;-87
2022/07/19 13:09:35;;;;;;;3.47;1.60;;;41.30;29.30;;;;;;5101457;27;20129;-87
2022/07/19 13:12:05;;;;;;;5.72;1.58;;;40.90;29.80;;;;;;5135885;27;20054;-86
2022/07/19 13:14:32;;;;;;;4.05;1.83;;;40.60;29.50;;;;;;5100640;27;20047;-87
2022/07/19 13:16:58;;;;;;;6.43;1.70;;;40.30;30.00;;;;;;5118071;27;20494;-87
2022/07/19 13:19:24;;;;;;;4.10;1.48;;;40.00;30.00;;;;;;5117162;27;20381;-86
2022/07/19 13:21:51;;;;;;;4.15;1.60;;;39.70;30.00;;;;;;5135183;27;20047;-87
2022/07/19 13:24:17;;;;;;;9.50;1.92;;;39.50;29.70;;;;;;5135173;27;20126;-87
2022/07/19 13:26:43;;;;;;;2.33;1.50;;;39.20;29.70;;;;;;5116751;27;20093;-87
2022/07/19 13:29:08;;;;;;;3.60;1.50;;;39.10;30.50;;;;;;5135139;27;20054;-86
2022/07/19 13:31:35;;;;;;;3.25;1.40;;;39.00;30.20;;;;;;5099378;27;20043;-87
2022/07/19 13:34:01;;;;;;;4.53;1.20;;;39.00;30.20;;;;;;5099956;27;20050;-87
2022/07/19 13:36:27;;;;;;;4.03;1.48;;;39.10;29.90;;;;;;5135105;27;20383;-87
2022/07/19 13:38:53;;;;;;;2.90;1.55;;;39.20;29.40;;;;;;5100161;27;20415;-86
2022/07/19 13:41:19;;;;;;;5.40;1.67;;;39.40;29.20;;;;;;5134918;27;20061;-87
2022/07/19 13:43:45;;;;;;;6.30;1.58;;;39.70;29.60;;;;;;5135155;27;20042;-87
2022/07/19 13:46:11;;;;;;;5.25;1.55;;;40.00;28.40;;;;;;5135062;27;20081;-86
2022/07/19 13:48:38;;;;;;;2.70;1.70;;;40.30;29.30;;;;;;5116379;27;20050;-87
2022/07/19 13:51:04;;;;;;;3.38;1.35;;;40.40;30.10;;;;;;5134951;27;20058;-88
2022/07/19 13:53:29;;;;;;;5.13;1.70;;;40.50;28.90;;;;;;5134818;27;20043;-86
2022/07/19 13:55:55;;;;;;;4.35;1.50;;;40.50;28.40;;;;;;5116983;28;20051;-86
2022/07/19 13:58:21;;;;;;;7.15;1.80;;;40.40;29.00;;;;;;5134903;27;20043;-86
2022/07/19 14:00:47;;;;;;;2.38;1.58;;;40.40;29.10;;;;;;5099297;28;20051;-87
2022/07/19 14:03:17;;;;;;;2.75;1.42;;;40.60;29.80;;;;;;5134568;28;20050;-90
2022/07/19 14:05:47;;;;;;;4.30;1.52;;;40.60;28.60;;;;;;5116275;28;20477;-86
2022/07/19 14:08:14;;;;;;;3.85;1.48;;;40.40;28.70;;;;;;5116871;28;20392;-86
2022/07/19 14:10:39;;;;;;;2.25;1.50;;;40.10;28.90;;;;;;5135360;28;20055;-86
2022/07/19 14:13:06;;;;;;;5.95;1.50;;;39.90;29.70;;;;;;5116493;28;20161;-86
2022/07/19 14:15:32;;;;;;;5.93;1.70;;;39.70;30.00;;;;;;5116364;28;20054;-86
2022/07/19 14:17:59;;;;;;;3.22;1.38;;;39.50;30.20;;;;;;5134716;28;20051;-87
2022/07/19 14:20:25;;;;;;;5.00;1.75;;;39.40;29.70;;;;;;5116406;28;20051;-88
2022/07/19 14:22:52;;;;;;;4.15;1.55;;;39.20;29.80;;;;;;5116694;28;20047;-87
2022/07/19 14:25:17;;;;;;;4.93;1.80;;;39.00;28.90;;;;;;5134756;28;20047;-89
2022/07/19 14:27:43;;;;;;;3.35;1.30;;;39.00;30.40;;;;;;5116180;28;20047;-88
2022/07/19 14:30:10;;;;;;;7.10;2.22;;;39.00;30.10;;;;;;5116495;28;20380;-88
2022/07/19 14:32:35;;;;;;;3.92;1.90;;;39.10;30.30;;;;;;5115712;28;20047;-86
2022/07/19 14:35:01;;;;;;;4.90;1.60;;;39.20;30.60;;;;;;5116068;28;20054;-87
2022/07/19 14:37:27;;;;;;;5.70;1.70;;;39.50;30.00;;;;;;5116179;28;20051;-88
2022/07/19 14:39:52;;;;;;;3.50;1.58;;;39.60;29.30;;;;;;5116751;28;20126;-88
2022/07/19 14:42:18;;;;;;;6.18;1.60;;;39.80;29.10;;;;;;5099980;28;20043;-87
2022/07/19 14:44:44;;;;;;;4.30;1.70;;;40.00;29.00;;;;;;5134286;28;20039;-87
2022/07/19 14:47:10;;;;;;;3.30;1.63;;;40.40;28.60;;;;;;5115160;28;20092;-86
2022/07/19 14:49:36;;;;;;;4.57;1.50;;;41.00;29.20;;;;;;5116374;28;20096;-89
2022/07/19 14:52:02;;;;;;;5.03;1.60;;;41.50;29.30;;;;;;5116282;28;20054;-88
2022/07/19 14:54:28;;;;;;;5.22;1.70;;;41.70;28.30;;;;;;5134894;28;20353;-91
2022/07/19 14:56:54;;;;;;;4.47;1.83;;;41.90;27.80;;;;;;5117640;27;20096;-87
2022/07/19 14:59:21;;;;;;;6.40;1.83;;;42.10;28.00;;;;;;5138696;27;20104;-87
2022/07/19 15:01:47;;;;;;;2.90;1.52;;;42.20;27.80;;;;;;5137686;27;20047;-88
2022/07/19 15:04:13;;;;;;;5.03;2.00;;;42.30;27.40;;;;;;5119630;27;20476;-88
2022/07/19 15:06:38;;;;;;;2.70;1.70;;;42.50;28.00;;;;;;5138031;27;20046;-87
2022/07/19 15:09:04;;;;;;;5.72;1.52;;;42.60;27.80;;;;;;5137941;27;20082;-88
2022/07/19 15:11:33;;;;;;;2.78;1.60;;;42.80;27.70;;;;;;5138230;27;20054;-90
2022/07/19 15:14:00;;;;;;;4.55;1.70;;;42.90;27.80;;;;;;5137763;27;20426;-88
2022/07/19 15:16:26;;;;;;;2.60;1.55;;;43.00;27.70;;;;;;5119247;27;20047;-88
2022/07/19 15:18:52;;;;;;;6.18;1.90;;;43.00;27.70;;;;;;5119725;27;20043;-88
2022/07/19 15:21:18;;;;;;;10.20;2.08;;;43.00;28.40;;;;;;5137796;27;20058;-89
2022/07/19 15:23:45;;;;;;;8.15;1.95;;;43.00;27.60;;;;;;5137642;27;20105;-88
2022/07/19 15:26:11;;;;;;;4.97;1.80;;;43.10;27.90;;;;;;5119368;27;20057;-88
2022/07/19 15:28:37;;;;;;;6.88;2.10;;;43.20;27.30;;;;;;5137672;27;20051;-87
2022/07/19 15:31:04;;;;;;;2.47;1.90;;;43.40;27.70;;;;;;5119268;27;20086;-88
2022/07/19 15:33:30;;;;;;;11.05;2.05;;;43.50;27.00;;;;;;5138105;27;20047;-87
2022/07/19 15:35:56;;;;;;;7.15;2.13;;;43.60;26.50;;;;;;5137042;27;20061;-87
2022/07/19 15:38:22;;;;;;;7.43;2.05;;;43.60;27.20;;;;;;5118789;27;20047;-87
2022/07/19 15:40:48;;;;;;;3.38;1.80;;;43.60;26.50;;;;;;5119249;27;20047;-87
2022/07/19 15:43:15;;;;;;;4.25;1.70;;;43.60;26.90;;;;;;5137136;27;20043;-87
2022/07/19 15:45:41;;;;;;;6.72;1.90;;;43.40;26.70;;;;;;5137233;27;20085;-87
2022/07/19 15:48:06;;;;;;;4.28;2.20;;;43.30;26.30;;;;;;5101326;27;20486;-87
2022/07/19 15:50:37;;;;;;;2.53;1.75;;;43.30;27.10;;;;;;5118608;27;20049;-87
2022/07/19 15:53:03;;;;;;;4.78;2.50;;;43.40;28.20;;;;;;5101604;27;20059;-87
2022/07/19 15:55:29;;;;;;;7.10;2.03;;;43.50;26.70;;;;;;5136808;27;20551;-88
2022/07/19 15:57:55;;;;;;;4.35;2.17;;;43.50;27.00;;;;;;5136872;27;20153;-88
2022/07/19 16:00:20;;;;;;;7.07;2.00;;;43.60;26.10;;;;;;5136782;27;20431;-89
2022/07/19 16:02:46;;;;;;;4.63;3.15;;;43.60;26.90;;;;;;5118252;27;20079;-88